Puffinus — HBY4826 — position and weather

sailwx.info

Track history (hours):
 
Tides and Currents Weather Stations Pressure Air Temp Water Temp Dewpoint Dewpoint Depression Visibility Wind Speed Wind Dir Waves Ship Positions

Puffinus

Last reported at 2017-Nov-12 17:15 UTC. Time now 2017-Dec-14 06:28 UTC.
Position N 37°06' W 008°40'.
Warning: this ship's position is 31 days out of date.

Type: Sailing vessel. MMSI: 269107220.

Date/timePositionNaut miles runAvg speedWind from/ knotsBaromVisibWave heightAir tempDewpointWater temp
2017-Nov-12 17:15N 37°06' W 008°40'1 4.8
2017-Nov-12 16:59N 37°06' W 008°39'2 4.5
2017-Nov-12 16:30N 37°04' W 008°37'2 4.3
2017-Nov-12 16:00N 37°03' W 008°35'2 3.7
2017-Nov-12 15:30N 37°01' W 008°34'4 5.6
2017-Nov-12 14:51N 36°59' W 008°38'4 3.6
2017-Nov-12 13:48N 37°01' W 008°42'0 0.6
2017-Nov-12 13:29N 37°02' W 008°42'1 1.3
2017-Nov-12 12:34N 37°02' W 008°41'0 1.5
2017-Nov-12 12:28N 37°03' W 008°41'1 1.3
2017-Nov-12 12:00N 37°03' W 008°40'3 5.5
2017-Nov-12 11:30N 37°06' W 008°40'  
2017-Nov-07 12:49N 37°06' W 008°40'2 5.8
2017-Nov-07 12:29N 37°05' W 008°39'3 5.7
2017-Nov-07 11:58N 37°03' W 008°37'0 0.7
2017-Nov-07 11:30N 37°03' W 008°37'1 1.8
2017-Nov-07 11:00N 37°04' W 008°37'2 3.3
2017-Nov-07 10:30N 37°05' W 008°39'  
Track history (hours):
 
Tides and Currents Weather Stations Pressure Air Temp Water Temp Dewpoint Dewpoint Depression Visibility Wind Speed Wind Dir Waves Ship Positions

Puffinus

Last reported at 2017-Nov-12 17:15 UTC. Time now 2017-Dec-14 06:28 UTC.
Position N 37°06' W 008°40'.
Warning: this ship's position is 31 days out of date.

Type: Sailing vessel. MMSI: 269107220.

Date/timePositionNaut miles runAvg speedWind from/ knotsBaromVisibWave heightAir tempDewpointWater temp
2017-Nov-12 17:15N 37°06' W 008°40'1 4.8
2017-Nov-12 16:59N 37°06' W 008°39'2 4.5
2017-Nov-12 16:30N 37°04' W 008°37'2 4.3
2017-Nov-12 16:00N 37°03' W 008°35'2 3.7
2017-Nov-12 15:30N 37°01' W 008°34'4 5.6
2017-Nov-12 14:51N 36°59' W 008°38'4 3.6
2017-Nov-12 13:48N 37°01' W 008°42'0 0.6
2017-Nov-12 13:29N 37°02' W 008°42'1 1.3
2017-Nov-12 12:34N 37°02' W 008°41'0 1.5
2017-Nov-12 12:28N 37°03' W 008°41'1 1.3
2017-Nov-12 12:00N 37°03' W 008°40'3 5.5
2017-Nov-12 11:30N 37°06' W 008°40'  
2017-Nov-07 12:49N 37°06' W 008°40'2 5.8
2017-Nov-07 12:29N 37°05' W 008°39'3 5.7
2017-Nov-07 11:58N 37°03' W 008°37'0 0.7
2017-Nov-07 11:30N 37°03' W 008°37'1 1.8
2017-Nov-07 11:00N 37°04' W 008°37'2 3.3
2017-Nov-07 10:30N 37°05' W 008°39'  

Dump ship's entire track history